Accueil
Images satellite Prévisions 10 joursClimatMétéo marine Cyclones Foudre AéroportsFAQ Actualités A propos
Météo : Europe Afrique Amérique du Nord Amérique du Sud Asie Australie-Océanie Autres
Langues Contact

Bergerac, France

Aéroport de Bergerac-Dordogne-Périgord

latitude: 44-49N, longitude: 000-31E, altitude: 51 m


METAR: LFBE 010400Z AUTO 24008KT 9999 -RA OVC010 12/11 Q1016
TAF: LFBE 282312Z 2823/2824 18005KT 2500 -RA OVC002

Heure: 05:22 (04:22 UTC)

Observation

Le bulletin a été fait il y a 22 minutes, à 04:00 UTC
Vent 8 kt de ouest/sud-ouest
Température 12°C
Humidité 94%
Pression 1016 hPa
Visibilité 10 km ou plus
Ciel couvert à une hauteur de 1000 ft
pluie faible

Changer d'unités

Prévision

Le bulletin a été fait il y a 5 heures et 10 minutes, à 23:12 UTC
Prévision valable du 28 à 23 UTC au 28 à 24 UTC
Vent 5 kt de sud
Visibilité: 2500 m
Ciel couvert à une hauteur de 200 ft
pluie faible
Les informations qui figurent sur ce site font l'objet d'une clause de non-responsabilité
Météo : Europe Afrique Amérique du Nord Amérique du Sud Asie Australie-Océanie Autres
Images satellite Prévisions 10 joursClimatMétéo marine Cyclones Foudre AéroportsFAQ Langues Contact Actualités A propos